createdAt,value
2019-05-12T00:01:53.863Z,7.96
2019-05-12T00:04:24.868Z,7.86
2019-05-12T00:06:58.418Z,7.97
2019-05-12T00:09:28.487Z,7.90
2019-05-12T00:11:59.679Z,7.90
2019-05-12T00:14:30.335Z,7.91
2019-05-12T00:17:00.982Z,7.92
2019-05-12T00:19:31.770Z,7.73
2019-05-12T00:22:02.973Z,7.73
2019-05-12T00:24:35.234Z,7.77
2019-05-12T00:27:17.868Z,7.70
2019-05-12T00:29:48.955Z,7.59
2019-05-12T00:32:19.923Z,7.47
2019-05-12T00:34:51.013Z,7.25
2019-05-12T00:37:22.740Z,7.31
2019-05-12T00:39:53.786Z,7.32
2019-05-12T00:42:24.457Z,7.22
2019-05-12T00:44:55.116Z,7.11
2019-05-12T00:47:27.951Z,7.21
2019-05-12T00:49:58.741Z,7.03
2019-05-12T00:52:29.414Z,7.04
2019-05-12T00:55:00.057Z,6.85
2019-05-12T00:57:30.738Z,6.73
2019-05-12T01:00:01.673Z,6.69
2019-05-12T01:02:34.115Z,6.62
2019-05-12T01:05:09.187Z,6.68
2019-05-12T01:07:40.226Z,6.60
2019-05-12T01:10:11.399Z,6.57
2019-05-12T01:12:42.086Z,6.47
2019-05-12T01:15:13.714Z,6.55
2019-05-12T01:17:44.694Z,6.60
2019-05-12T01:20:18.362Z,6.61
2019-05-12T01:22:50.585Z,6.47
2019-05-12T01:25:21.396Z,6.56
2019-05-12T01:27:52.054Z,6.57
2019-05-12T01:30:22.887Z,6.63
2019-05-12T01:32:53.904Z,6.63
2019-05-12T01:35:24.857Z,6.65
2019-05-12T01:37:55.851Z,6.62
2019-05-12T01:40:28.591Z,6.65
2019-05-12T01:43:00.531Z,6.68
2019-05-12T01:45:31.189Z,6.63
2019-05-12T01:48:02.944Z,6.65
2019-05-12T01:50:33.615Z,6.68
2019-05-12T01:53:07.918Z,6.68
2019-05-12T01:55:38.791Z,6.70
2019-05-12T01:58:10.082Z,6.77
2019-05-12T02:00:40.773Z,6.85
2019-05-12T02:03:11.742Z,6.88
2019-05-12T02:05:44.513Z,7.01
2019-05-12T02:08:20.065Z,6.81
2019-05-12T02:10:52.408Z,6.78
2019-05-12T02:13:23.446Z,6.87
2019-05-12T02:15:54.113Z,6.92
2019-05-12T02:18:24.855Z,6.99
2019-05-12T02:20:57.725Z,6.84
2019-05-12T02:23:28.425Z,6.86
2019-05-12T02:25:59.087Z,6.90
2019-05-12T02:28:30.119Z,7.03
2019-05-12T02:31:00.810Z,6.91
2019-05-12T02:33:31.471Z,6.98
2019-05-12T02:36:04.701Z,7.07
2019-05-12T02:38:34.882Z,6.97
2019-05-12T02:41:05.764Z,7.03
2019-05-12T02:43:37.162Z,7.01
2019-05-12T02:46:07.835Z,6.74
2019-05-12T02:48:38.492Z,6.77
2019-05-12T02:51:10.596Z,6.84
2019-05-12T02:53:41.625Z,6.84
2019-05-12T02:56:15.130Z,6.89
2019-05-12T02:58:48.838Z,7.06
2019-05-12T03:01:24.404Z,7.10
2019-05-12T03:03:58.086Z,7.02
2019-05-12T03:06:31.458Z,6.98
2019-05-12T03:09:07.661Z,7.15
2019-05-12T03:11:38.385Z,7.05
2019-05-12T03:14:09.074Z,7.09
2019-05-12T03:16:40.052Z,7.14
2019-05-12T03:19:10.735Z,7.11
2019-05-12T03:21:44.161Z,7.13
2019-05-12T03:24:14.431Z,7.17
2019-05-12T03:26:46.169Z,7.25
2019-05-12T03:29:16.838Z,7.24
2019-05-12T03:31:49.069Z,7.27
2019-05-12T03:34:20.880Z,7.25
2019-05-12T03:36:58.613Z,7.35
2019-05-12T03:39:25.753Z,7.34
2019-05-12T03:41:56.453Z,7.24
2019-05-12T03:44:27.150Z,7.20
2019-05-12T03:46:57.836Z,7.31
2019-05-12T03:49:28.497Z,7.28
2019-05-12T03:51:59.535Z,7.34
2019-05-12T03:54:30.199Z,7.31
2019-05-12T03:57:00.901Z,7.41
2019-05-12T03:59:34.601Z,7.15
2019-05-12T04:02:04.931Z,7.30
2019-05-12T04:04:35.976Z,7.33
2019-05-12T04:07:06.667Z,7.20
2019-05-12T04:09:37.727Z,7.22
2019-05-12T04:12:08.816Z,7.19
2019-05-12T04:14:39.463Z,7.23
2019-05-12T04:17:10.459Z,7.31
2019-05-12T04:19:41.150Z,7.35
2019-05-12T04:22:15.118Z,7.36
2019-05-12T04:24:44.654Z,7.34
2019-05-12T04:27:15.692Z,7.28
2019-05-12T04:29:46.530Z,7.33
2019-05-12T04:32:17.488Z,7.24
2019-05-12T04:34:48.183Z,7.33
2019-05-12T04:37:18.936Z,7.18
2019-05-12T04:39:49.643Z,7.22
2019-05-12T04:42:20.363Z,7.35
2019-05-12T04:44:51.475Z,7.29
2019-05-12T04:47:25.055Z,7.46
2019-05-12T04:49:54.774Z,7.44
2019-05-12T04:52:25.586Z,7.36
2019-05-12T04:54:56.238Z,7.37
2019-05-12T04:57:27.290Z,7.33
2019-05-12T04:59:58.330Z,7.38
2019-05-12T05:02:29.402Z,7.41
2019-05-12T05:05:00.045Z,7.36
2019-05-12T05:07:30.719Z,7.41
2019-05-12T05:10:04.649Z,7.50
2019-05-12T05:12:34.659Z,7.48
2019-05-12T05:15:08.129Z,7.48
2019-05-12T05:17:38.821Z,7.65
2019-05-12T05:20:09.915Z,7.50
2019-05-12T05:22:41.071Z,7.58
2019-05-12T05:25:14.229Z,7.68
2019-05-12T05:27:44.829Z,7.75
2019-05-12T05:30:15.491Z,7.81
2019-05-12T05:32:46.162Z,7.83
2019-05-12T05:35:16.920Z,7.80
2019-05-12T05:37:47.593Z,7.88
2019-05-12T05:40:19.889Z,7.86
2019-05-12T05:42:51.092Z,7.83
2019-05-12T05:45:26.208Z,7.76
2019-05-12T05:47:54.523Z,7.89
2019-05-12T05:50:29.470Z,7.91
2019-05-12T05:52:57.931Z,7.98
2019-05-12T05:55:28.982Z,8.00
2019-05-12T05:58:04.495Z,8.05
2019-05-12T06:00:35.166Z,8.02
2019-05-12T06:03:05.698Z,8.15
2019-05-12T06:05:38.679Z,8.17
2019-05-12T06:08:14.779Z,8.25
2019-05-12T06:10:43.551Z,8.31
2019-05-12T06:13:14.686Z,8.33
2019-05-12T06:15:45.349Z,8.48
2019-05-12T06:18:16.339Z,8.68
2019-05-12T06:20:47.036Z,8.79
2019-05-12T06:23:18.114Z,8.83
2019-05-12T06:25:51.501Z,8.87
2019-05-12T06:28:23.380Z,8.92
2019-05-12T06:30:54.920Z,8.94
2019-05-12T06:33:31.881Z,8.98
2019-05-12T06:35:59.045Z,9.06
2019-05-12T06:38:31.106Z,9.15
2019-05-12T06:41:03.631Z,9.33
2019-05-12T06:43:38.799Z,9.23
2019-05-12T06:46:07.120Z,9.39
2019-05-12T06:48:37.759Z,9.56
2019-05-12T06:51:09.259Z,9.36
2019-05-12T06:53:40.797Z,9.17
2019-05-12T06:56:15.396Z,9.27
2019-05-12T06:58:49.670Z,9.33
2019-05-12T07:01:20.743Z,9.37
2019-05-12T07:03:53.371Z,9.48
2019-05-12T07:06:24.863Z,9.43
2019-05-12T07:09:06.355Z,9.64
2019-05-12T07:11:41.323Z,9.79
2019-05-12T07:14:05.254Z,9.92
2019-05-12T07:16:34.117Z,10.22
2019-05-12T07:19:09.642Z,10.45
2019-05-12T07:21:37.552Z,10.54
2019-05-12T07:24:11.076Z,10.68
2019-05-12T07:26:41.097Z,10.85
2019-05-12T07:29:13.413Z,11.28
2019-05-12T07:31:45.093Z,11.62
2019-05-12T07:34:16.221Z,11.63
2019-05-12T07:36:48.924Z,11.87
2019-05-12T07:39:21.023Z,11.84
2019-05-12T07:41:55.100Z,11.39
2019-05-12T07:44:34.394Z,11.22
2019-05-12T07:47:03.623Z,11.34
2019-05-12T07:49:38.493Z,11.39
2019-05-12T07:52:08.529Z,11.80
2019-05-12T07:54:39.621Z,11.99
2019-05-12T07:57:12.495Z,11.90
2019-05-12T07:59:43.772Z,11.94
2019-05-12T08:02:14.967Z,11.58
2019-05-12T08:04:46.021Z,11.64
2019-05-12T08:07:19.723Z,11.38
2019-05-12T08:09:49.100Z,11.35
2019-05-12T08:12:21.162Z,11.62
2019-05-12T08:14:54.094Z,11.62
2019-05-12T08:17:24.795Z,11.75
2019-05-12T08:19:55.823Z,11.73
2019-05-12T08:22:29.424Z,11.73
2019-05-12T08:25:00.703Z,11.94
2019-05-12T08:27:33.911Z,11.92
2019-05-12T08:30:06.262Z,11.69
2019-05-12T08:32:37.374Z,11.58
2019-05-12T08:35:09.343Z,11.96
2019-05-12T08:37:40.374Z,12.05
2019-05-12T08:40:11.835Z,12.35
2019-05-12T08:42:43.683Z,12.39
2019-05-12T08:45:23.772Z,12.50
2019-05-12T08:47:47.811Z,12.31
2019-05-12T08:50:23.065Z,12.12
2019-05-12T08:52:53.866Z,12.16
2019-05-12T08:55:31.149Z,12.21
2019-05-12T08:57:56.719Z,12.67
2019-05-12T09:00:46.500Z,12.54
2019-05-12T09:03:14.357Z,12.52
2019-05-12T09:05:45.288Z,12.69
2019-05-12T09:08:17.117Z,12.69
2019-05-12T09:10:48.159Z,13.04
2019-05-12T09:13:18.856Z,13.55
2019-05-12T09:15:49.947Z,14.32
2019-05-12T09:18:20.644Z,14.57
2019-05-12T09:20:53.458Z,14.27
2019-05-12T09:23:24.097Z,13.73
2019-05-12T09:25:57.139Z,13.76
2019-05-12T09:28:27.496Z,14.05
2019-05-12T09:30:58.343Z,13.77
2019-05-12T09:33:31.847Z,14.08
2019-05-12T09:36:04.150Z,14.42
2019-05-12T09:38:34.763Z,15.30
2019-05-12T09:41:05.732Z,15.22
2019-05-12T09:43:40.142Z,14.88
2019-05-12T09:46:09.112Z,15.08
2019-05-12T09:48:46.894Z,14.05
2019-05-12T09:51:13.390Z,14.12
2019-05-12T09:53:50.982Z,15.13
2019-05-12T09:56:17.303Z,15.84
2019-05-12T09:58:59.012Z,15.97
2019-05-12T10:01:20.959Z,16.43
2019-05-12T10:03:54.331Z,17.29
2019-05-12T10:06:24.715Z,18.06
2019-05-12T10:08:55.381Z,17.70
2019-05-12T10:11:26.440Z,17.11
2019-05-12T10:14:00.309Z,16.84
2019-05-12T10:16:29.494Z,16.40
2019-05-12T10:19:00.480Z,15.73
2019-05-12T10:21:31.511Z,15.35
2019-05-12T10:24:05.073Z,15.13
2019-05-12T10:26:36.477Z,15.77
2019-05-12T10:29:17.511Z,15.35
2019-05-12T10:31:44.524Z,15.51
2019-05-12T10:34:23.570Z,15.32
2019-05-12T10:36:54.054Z,15.79
2019-05-12T10:39:24.902Z,16.51
2019-05-12T10:41:55.921Z,16.67
2019-05-12T10:44:30.082Z,16.15
2019-05-12T10:47:00.961Z,15.61
2019-05-12T10:49:33.726Z,15.75
2019-05-12T10:52:07.206Z,14.94
2019-05-12T10:54:37.905Z,15.10
2019-05-12T10:57:09.827Z,16.20
2019-05-12T10:59:45.188Z,16.53
2019-05-12T11:02:13.932Z,16.41
2019-05-12T11:04:45.163Z,16.18
2019-05-12T11:07:16.160Z,16.55
2019-05-12T11:09:46.834Z,17.32
2019-05-12T11:12:19.088Z,17.63
2019-05-12T11:14:49.887Z,17.82
2019-05-12T11:17:20.955Z,18.23
2019-05-12T11:19:54.032Z,18.56
2019-05-12T11:22:24.424Z,17.82
2019-05-12T11:24:55.876Z,17.61
2019-05-12T11:27:27.025Z,18.78
2019-05-12T11:29:57.691Z,18.89
2019-05-12T11:32:34.876Z,19.83
2019-05-12T11:35:04.112Z,19.54
2019-05-12T11:37:35.198Z,18.03
2019-05-12T11:40:07.430Z,17.99
2019-05-12T11:42:38.110Z,17.93
2019-05-12T11:45:09.579Z,17.43
2019-05-12T11:47:40.686Z,17.81
2019-05-12T11:50:13.201Z,17.70
2019-05-12T11:52:45.992Z,17.33
2019-05-12T11:55:21.393Z,17.18
2019-05-12T11:57:49.646Z,16.57
2019-05-12T12:00:24.215Z,16.81
2019-05-12T12:02:54.878Z,16.94
2019-05-12T12:05:25.593Z,17.09
2019-05-12T12:07:56.576Z,17.00
2019-05-12T12:10:29.265Z,17.02
2019-05-12T12:13:00.783Z,16.62
2019-05-12T12:15:31.786Z,16.41
2019-05-12T12:18:03.881Z,16.62
2019-05-12T12:20:35.511Z,16.03
2019-05-12T12:23:10.791Z,16.36
2019-05-12T12:25:43.142Z,16.35
2019-05-12T12:28:13.474Z,16.09
2019-05-12T12:30:47.374Z,15.88
2019-05-12T12:33:16.944Z,15.95
2019-05-12T12:35:50.574Z,15.77
2019-05-12T12:38:20.184Z,15.62
2019-05-12T12:40:53.396Z,15.94
2019-05-12T12:43:24.782Z,16.00
2019-05-12T12:45:57.524Z,15.81
2019-05-12T12:48:29.947Z,15.72
2019-05-12T12:51:01.019Z,16.06
2019-05-12T12:53:34.350Z,16.45
2019-05-12T12:56:05.201Z,16.24
2019-05-12T12:58:36.165Z,16.41
2019-05-12T13:01:07.230Z,16.63
2019-05-12T13:03:38.259Z,16.23
2019-05-12T13:06:09.186Z,16.13
2019-05-12T13:08:40.222Z,16.21
2019-05-12T13:11:10.895Z,16.10
2019-05-12T13:13:41.879Z,16.13
2019-05-12T13:16:13.309Z,16.53
2019-05-12T13:18:44.018Z,16.03
2019-05-12T13:21:14.774Z,16.40
2019-05-12T13:23:45.459Z,16.22
2019-05-12T13:26:16.129Z,16.12
2019-05-12T13:28:53.257Z,16.10
2019-05-12T13:31:19.188Z,15.72
2019-05-12T13:33:54.681Z,16.05
2019-05-12T13:36:24.267Z,16.21
2019-05-12T13:38:55.419Z,16.19
2019-05-12T13:41:26.099Z,16.12
2019-05-12T13:43:59.947Z,15.88
2019-05-12T13:46:29.860Z,16.27
2019-05-12T13:49:00.565Z,16.37
2019-05-12T13:51:33.320Z,16.18
2019-05-12T13:54:03.978Z,16.02
2019-05-12T13:56:35.890Z,16.06
2019-05-12T13:59:06.895Z,16.10
2019-05-12T14:01:40.252Z,16.13
2019-05-12T14:04:10.256Z,16.30
2019-05-12T14:06:40.949Z,16.14
2019-05-12T14:09:13.615Z,15.96
2019-05-12T14:11:44.465Z,16.16
2019-05-12T14:14:15.762Z,16.11
2019-05-12T14:16:53.585Z,16.14
2019-05-12T14:19:20.385Z,16.32
2019-05-12T14:21:51.518Z,16.61
2019-05-12T14:24:23.315Z,16.58
2019-05-12T14:26:54.400Z,16.58
2019-05-12T14:29:26.600Z,16.55
2019-05-12T14:32:02.411Z,16.66
2019-05-12T14:34:30.308Z,16.73
2019-05-12T14:37:06.824Z,16.79
2019-05-12T14:39:34.452Z,16.83
2019-05-12T14:42:05.331Z,16.83
2019-05-12T14:44:44.012Z,16.60
2019-05-12T14:47:08.419Z,16.61
2019-05-12T14:49:39.409Z,16.81
2019-05-12T14:52:10.165Z,16.88
2019-05-12T14:54:43.436Z,16.82
2019-05-12T14:57:13.971Z,16.78
2019-05-12T14:59:44.939Z,16.48
2019-05-12T15:02:19.402Z,16.61
2019-05-12T15:04:48.348Z,16.84
2019-05-12T15:07:19.214Z,16.75
2019-05-12T15:09:53.926Z,16.86
2019-05-12T15:12:24.210Z,16.64
2019-05-12T15:14:54.672Z,16.43
2019-05-12T15:17:25.655Z,16.31
2019-05-12T15:20:00.208Z,16.39
2019-05-12T15:22:29.053Z,16.44
2019-05-12T15:25:02.696Z,16.66
2019-05-12T15:27:42.350Z,16.54
2019-05-12T15:30:18.913Z,16.55
2019-05-12T15:32:40.917Z,16.63
2019-05-12T15:35:13.714Z,16.44
2019-05-12T15:37:44.048Z,16.10
2019-05-12T15:40:14.878Z,15.91
2019-05-12T15:42:45.575Z,16.01
2019-05-12T15:45:17.179Z,16.15
2019-05-12T15:47:48.143Z,16.08
2019-05-12T15:50:19.624Z,16.17
2019-05-12T15:52:50.323Z,16.27
2019-05-12T15:55:25.585Z,16.51
2019-05-12T15:57:54.012Z,16.53
2019-05-12T16:00:24.731Z,16.66
2019-05-12T16:02:55.686Z,16.86
2019-05-12T16:05:30.981Z,16.71
2019-05-12T16:08:00.288Z,16.60
2019-05-12T16:10:31.298Z,16.48
2019-05-12T16:13:02.249Z,16.42
2019-05-12T16:15:33.987Z,16.28
2019-05-12T16:18:09.907Z,16.09
2019-05-12T16:20:39.569Z,16.07
2019-05-12T16:23:17.135Z,16.01
2019-05-12T16:25:42.868Z,15.96
2019-05-12T16:28:22.677Z,15.95
2019-05-12T16:30:47.334Z,16.04
2019-05-12T16:33:20.789Z,15.91
2019-05-12T16:35:50.769Z,15.81
2019-05-12T16:38:23.494Z,15.75
2019-05-12T16:40:54.019Z,15.90
2019-05-12T16:43:29.463Z,15.89
2019-05-12T16:45:57.071Z,15.64
2019-05-12T16:48:32.819Z,15.56
2019-05-12T16:51:00.455Z,15.56
2019-05-12T16:53:31.122Z,15.49
2019-05-12T16:56:04.098Z,15.36
2019-05-12T16:58:35.493Z,15.35
2019-05-12T17:01:06.434Z,15.30
2019-05-12T17:03:37.098Z,15.17
2019-05-12T17:06:08.033Z,15.28
2019-05-12T17:08:38.980Z,15.27
2019-05-12T17:11:24.373Z,15.22
2019-05-12T17:13:47.502Z,15.22
2019-05-12T17:16:16.503Z,15.15
2019-05-12T17:18:47.445Z,15.02
2019-05-12T17:21:18.414Z,15.18
2019-05-12T17:23:49.164Z,15.05
2019-05-12T17:26:19.851Z,14.96
2019-05-12T17:28:50.535Z,14.95
2019-05-12T17:31:21.557Z,14.92
2019-05-12T17:33:54.376Z,14.90
2019-05-12T17:36:25.469Z,14.88
2019-05-12T17:38:57.800Z,14.95
2019-05-12T17:41:31.445Z,15.03
2019-05-12T17:44:01.520Z,15.00
2019-05-12T17:46:37.883Z,14.97
2019-05-12T17:49:05.348Z,14.94
2019-05-12T17:51:37.604Z,14.87
2019-05-12T17:54:15.697Z,14.83
2019-05-12T17:56:41.240Z,14.82
2019-05-12T17:59:14.825Z,14.89
2019-05-12T18:01:44.380Z,14.87
2019-05-12T18:04:15.050Z,14.83
2019-05-12T18:06:46.079Z,14.83
2019-05-12T18:09:20.034Z,14.63
2019-05-12T18:11:54.233Z,14.58
2019-05-12T18:14:26.742Z,14.36
2019-05-12T18:17:02.453Z,14.41
2019-05-12T18:19:27.192Z,14.36
2019-05-12T18:22:03.251Z,14.32
2019-05-12T18:24:30.888Z,14.29
2019-05-12T18:27:07.251Z,14.18
2019-05-12T18:29:34.676Z,14.21
2019-05-12T18:32:08.531Z,14.04
2019-05-12T18:34:38.287Z,14.11
2019-05-12T18:37:09.049Z,14.14
2019-05-12T18:39:40.049Z,14.13
2019-05-12T18:42:10.735Z,14.10
2019-05-12T18:44:43.675Z,14.03
2019-05-12T18:47:16.738Z,14.03
2019-05-12T18:49:47.911Z,13.82
2019-05-12T18:52:19.096Z,13.82
2019-05-12T18:54:52.663Z,13.89
2019-05-12T18:57:23.812Z,13.88
2019-05-12T19:00:01.494Z,13.45
2019-05-12T19:02:28.582Z,13.75
2019-05-12T19:05:00.468Z,13.68
2019-05-12T19:07:39.606Z,13.66
2019-05-12T19:10:05.043Z,13.69
2019-05-12T19:12:35.882Z,13.62
2019-05-12T19:15:10.181Z,13.51
2019-05-12T19:17:40.558Z,13.41
2019-05-12T19:20:13.399Z,13.57
2019-05-12T19:22:51.270Z,13.43
2019-05-12T19:25:19.378Z,13.47
2019-05-12T19:27:55.526Z,13.46
2019-05-12T19:30:25.382Z,13.34
2019-05-12T19:32:54.967Z,13.34
2019-05-12T19:35:25.974Z,13.19
2019-05-12T19:37:57.109Z,13.18
2019-05-12T19:40:27.802Z,13.09
2019-05-12T19:45:40.804Z,13.15
2019-05-12T19:48:23.828Z,13.08
2019-05-12T19:50:52.126Z,13.15
2019-05-12T19:53:18.003Z,13.02
2019-05-12T19:55:49.863Z,13.04
2019-05-12T19:58:23.550Z,13.02
2019-05-12T20:00:54.253Z,13.01
2019-05-12T20:03:25.353Z,13.04
2019-05-12T20:05:56.375Z,12.97
2019-05-12T20:08:27.421Z,12.99
2019-05-12T20:10:58.152Z,12.81
2019-05-12T20:13:35.106Z,12.80
2019-05-12T20:16:02.104Z,12.77
2019-05-12T20:18:36.170Z,12.87
2019-05-12T20:21:05.497Z,12.85
2019-05-12T20:23:36.547Z,12.88
2019-05-12T20:26:07.237Z,12.72
2019-05-12T20:28:41.883Z,12.74
2019-05-12T20:31:10.687Z,12.72
2019-05-12T20:33:43.441Z,12.73
2019-05-12T20:36:14.346Z,12.70
2019-05-12T20:38:45.132Z,12.70
2019-05-12T20:41:22.645Z,12.56
2019-05-12T20:43:48.856Z,12.61
2019-05-12T20:46:24.288Z,12.68
2019-05-12T20:48:53.930Z,12.66
2019-05-12T20:51:25.186Z,12.59
2019-05-12T20:53:55.847Z,12.57
2019-05-12T20:56:26.951Z,12.44
2019-05-12T20:58:57.616Z,12.41
2019-05-12T21:01:30.244Z,12.38
2019-05-12T21:04:03.502Z,12.30
2019-05-12T21:06:41.718Z,12.42
2019-05-12T21:09:07.342Z,12.43
2019-05-12T21:11:40.823Z,12.35
2019-05-12T21:14:11.789Z,12.32
2019-05-12T21:16:44.902Z,12.30
2019-05-12T21:19:15.191Z,12.28
2019-05-12T21:21:46.264Z,12.28
2019-05-12T21:24:16.919Z,12.19
2019-05-12T21:26:48.050Z,12.24
2019-05-12T21:29:24.690Z,12.14
2019-05-12T21:31:53.162Z,12.23
2019-05-12T21:34:25.530Z,12.22
2019-05-12T21:36:58.932Z,12.19
2019-05-12T21:39:29.347Z,12.18
2019-05-12T21:42:00.052Z,12.14
2019-05-12T21:44:31.006Z,12.14
2019-05-12T21:47:07.860Z,12.15
2019-05-12T21:49:34.650Z,12.13
2019-05-12T21:52:06.518Z,12.09
2019-05-12T21:54:39.521Z,11.94
2019-05-12T21:57:11.020Z,12.00
2019-05-12T21:59:41.699Z,11.94
2019-05-12T22:02:14.725Z,11.93
2019-05-12T22:04:45.775Z,12.02
2019-05-12T22:07:16.835Z,12.02
2019-05-12T22:09:47.601Z,12.01
2019-05-12T22:12:23.293Z,11.97
2019-05-12T22:14:51.021Z,11.95
2019-05-12T22:17:23.907Z,11.99
2019-05-12T22:19:54.672Z,11.95
2019-05-12T22:22:29.802Z,11.92
2019-05-12T22:24:58.121Z,11.93
2019-05-12T22:27:30.913Z,11.85
2019-05-12T22:30:01.193Z,11.79
2019-05-12T22:32:33.110Z,11.72
2019-05-12T22:35:05.833Z,11.70
2019-05-12T22:37:36.726Z,11.74
2019-05-12T22:40:15.066Z,11.78
2019-05-12T22:42:41.437Z,11.72
2019-05-12T22:45:15.370Z,11.69
2019-05-12T22:47:49.235Z,11.66
2019-05-12T22:50:18.785Z,11.63
2019-05-12T22:52:49.612Z,11.62
2019-05-12T22:55:21.149Z,11.58
2019-05-12T22:57:52.829Z,11.53
2019-05-12T23:00:24.468Z,11.55
2019-05-12T23:03:00.539Z,11.49
2019-05-12T23:05:28.068Z,11.51
2019-05-12T23:08:00.119Z,11.38
2019-05-12T23:10:31.126Z,11.40
2019-05-12T23:13:04.831Z,11.32
2019-05-12T23:15:38.749Z,11.35
2019-05-12T23:18:07.651Z,11.41
2019-05-12T23:20:38.321Z,11.25
2019-05-12T23:23:15.364Z,11.24
2019-05-12T23:25:43.928Z,11.24
2019-05-12T23:28:14.120Z,11.27
2019-05-12T23:30:48.568Z,11.19
2019-05-12T23:33:17.797Z,11.04
2019-05-12T23:35:48.827Z,11.08
2019-05-12T23:38:21.099Z,11.08
2019-05-12T23:40:53.796Z,11.14
2019-05-12T23:43:25.035Z,11.19
2019-05-12T23:45:56.050Z,11.13
2019-05-12T23:48:27.094Z,11.13
2019-05-12T23:50:57.774Z,10.88
2019-05-12T23:53:28.471Z,10.90
2019-05-12T23:55:59.122Z,10.83
2019-05-12T23:58:30.878Z,11.01
